AZU4265 SBUL-SBKP
Flight info
| Callsign | AZU4265 |
|---|---|
| Flight time | 0h 49m |
| Altitude | 35000 |
| Route | KOMLU DCT DEVIR UZ2 ENTIT |
| Aircraft | A20N/M-SDE2E3FGHIJ1RWXY/LB1 |
Departure
| Time | 2026-04-20 01:57 |
|---|---|
| Airport | Ten. Cel. Aviador César Bombonato Airport (SBUL) |
Arrival
| Time | 2026-04-20 02:46 |
|---|---|
| Airport | Viracopos International Airport (SBKP) |
| Time | Latitude | Longitude | Altitude | Speed | Heading |
|---|---|---|---|---|---|
| 2026-04-20 01:36 | -18.88939 | -48.23013 | 3107 ft | 0 kts | 292° |
| 2026-04-20 01:46 | -18.88944 | -48.22998 | 3107 ft | 2 kts | 293° |
| 2026-04-20 01:47 | -18.88951 | -48.22982 | 3107 ft | 2 kts | 308° |
| 2026-04-20 01:47 | -18.88963 | -48.22977 | 3107 ft | 1 kts | 23° |
| 2026-04-20 01:47 | -18.88964 | -48.22978 | 3107 ft | 0 kts | 23° |
| 2026-04-20 01:51 | -18.88956 | -48.22974 | 3107 ft | 4 kts | 23° |
| 2026-04-20 01:51 | -18.88912 | -48.22954 | 3107 ft | 9 kts | 22° |
| 2026-04-20 01:51 | -18.88850 | -48.22930 | 3107 ft | 10 kts | 20° |
| 2026-04-20 01:52 | -18.88799 | -48.22876 | 3107 ft | 11 kts | 69° |
| 2026-04-20 01:52 | -18.88768 | -48.22797 | 3108 ft | 12 kts | 63° |
| 2026-04-20 01:52 | -18.88706 | -48.22744 | 3109 ft | 11 kts | 19° |
| 2026-04-20 01:52 | -18.88628 | -48.22711 | 3109 ft | 13 kts | 24° |
| 2026-04-20 01:53 | -18.88541 | -48.22670 | 3108 ft | 14 kts | 24° |
| 2026-04-20 01:53 | -18.88443 | -48.22626 | 3109 ft | 16 kts | 23° |
| 2026-04-20 01:53 | -18.88333 | -48.22575 | 3108 ft | 19 kts | 24° |
| 2026-04-20 01:53 | -18.88198 | -48.22520 | 3107 ft | 23 kts | 21° |
| 2026-04-20 01:54 | -18.88038 | -48.22450 | 3107 ft | 27 kts | 21° |
| 2026-04-20 01:54 | -18.87844 | -48.22364 | 3108 ft | 33 kts | 23° |
| 2026-04-20 01:54 | -18.87633 | -48.22270 | 3110 ft | 35 kts | 23° |
| 2026-04-20 01:54 | -18.87487 | -48.22220 | 3109 ft | 9 kts | 69° |
| 2026-04-20 01:55 | -18.87495 | -48.22207 | 3109 ft | 1 kts | 172° |
| 2026-04-20 01:55 | -18.87508 | -48.22216 | 3109 ft | 6 kts | 206° |
| 2026-04-20 01:55 | -18.87537 | -48.22229 | 3109 ft | 8 kts | 203° |
| 2026-04-20 01:55 | -18.87550 | -48.22235 | 3109 ft | 0 kts | 204° |
| 2026-04-20 01:56 | -18.87749 | -48.22323 | 3110 ft | 74 kts | 203° |
| 2026-04-20 01:57 | -18.88463 | -48.22636 | 3109 ft | 144 kts | 202° |
| 2026-04-20 01:57 | -18.89487 | -48.23097 | 3591 ft | 162 kts | 202° |
| 2026-04-20 01:57 | -18.90515 | -48.23582 | 4442 ft | 160 kts | 202° |
| 2026-04-20 01:57 | -18.91524 | -48.24083 | 4981 ft | 169 kts | 202° |
| 2026-04-20 01:58 | -18.92662 | -48.24603 | 5337 ft | 187 kts | 200° |
| 2026-04-20 01:58 | -18.93938 | -48.25139 | 5644 ft | 207 kts | 199° |
| 2026-04-20 01:58 | -18.95391 | -48.25337 | 6008 ft | 218 kts | 169° |
| 2026-04-20 01:58 | -18.96793 | -48.24614 | 6352 ft | 239 kts | 137° |
| 2026-04-20 01:59 | -18.97720 | -48.23084 | 6729 ft | 257 kts | 105° |
| 2026-04-20 01:59 | -18.97819 | -48.21162 | 7238 ft | 272 kts | 82° |
| 2026-04-20 01:59 | -18.97558 | -48.19114 | 7775 ft | 285 kts | 86° |
| 2026-04-20 01:59 | -18.97597 | -48.17045 | 8610 ft | 287 kts | 97° |
| 2026-04-20 02:00 | -18.97999 | -48.14969 | 9443 ft | 290 kts | 107° |
| 2026-04-20 02:00 | -18.98649 | -48.12945 | 10246 ft | 293 kts | 111° |
| 2026-04-20 02:00 | -18.99442 | -48.10897 | 10633 ft | 313 kts | 114° |
| 2026-04-20 02:00 | -19.00353 | -48.08706 | 10858 ft | 336 kts | 115° |
| 2026-04-20 02:01 | -19.01513 | -48.06510 | 11379 ft | 344 kts | 127° |
| 2026-04-20 02:01 | -19.03113 | -48.04628 | 12165 ft | 345 kts | 139° |
| 2026-04-20 02:01 | -19.05044 | -48.03102 | 12904 ft | 347 kts | 146° |
| 2026-04-20 02:01 | -19.07011 | -48.01653 | 13641 ft | 349 kts | 146° |
| 2026-04-20 02:02 | -19.09009 | -48.00172 | 14318 ft | 351 kts | 146° |
| 2026-04-20 02:02 | -19.11022 | -47.98676 | 14927 ft | 355 kts | 146° |
| 2026-04-20 02:02 | -19.13060 | -47.97161 | 15532 ft | 358 kts | 146° |
| 2026-04-20 02:02 | -19.15085 | -47.95656 | 16124 ft | 361 kts | 146° |
| 2026-04-20 02:03 | -19.17163 | -47.94111 | 16719 ft | 365 kts | 146° |
| 2026-04-20 02:03 | -19.19248 | -47.92559 | 17303 ft | 368 kts | 146° |
| 2026-04-20 02:03 | -19.21340 | -47.91001 | 17868 ft | 371 kts | 146° |
| 2026-04-20 02:03 | -19.23465 | -47.89417 | 18407 ft | 374 kts | 146° |
| 2026-04-20 02:04 | -19.25609 | -47.87819 | 18863 ft | 378 kts | 146° |
| 2026-04-20 02:04 | -19.27771 | -47.86207 | 19309 ft | 382 kts | 146° |
| 2026-04-20 02:04 | -19.29926 | -47.84600 | 19763 ft | 386 kts | 146° |
| 2026-04-20 02:04 | -19.32136 | -47.82951 | 20220 ft | 390 kts | 146° |
| 2026-04-20 02:05 | -19.34375 | -47.81281 | 20677 ft | 394 kts | 147° |
| 2026-04-20 02:05 | -19.36628 | -47.79599 | 21149 ft | 397 kts | 147° |
| 2026-04-20 02:05 | -19.38873 | -47.77922 | 21594 ft | 401 kts | 147° |
| 2026-04-20 02:05 | -19.41167 | -47.76208 | 22055 ft | 405 kts | 147° |
| 2026-04-20 02:06 | -19.43483 | -47.74477 | 22516 ft | 409 kts | 147° |
| 2026-04-20 02:06 | -19.45818 | -47.72732 | 22981 ft | 413 kts | 147° |
| 2026-04-20 02:06 | -19.48181 | -47.70964 | 23429 ft | 417 kts | 147° |
| 2026-04-20 02:06 | -19.50560 | -47.69184 | 23848 ft | 420 kts | 148° |
| 2026-04-20 02:07 | -19.52958 | -47.67389 | 24258 ft | 423 kts | 148° |
| 2026-04-20 02:07 | -19.55370 | -47.65583 | 24665 ft | 425 kts | 148° |
| 2026-04-20 02:07 | -19.57794 | -47.63767 | 25056 ft | 428 kts | 148° |
| 2026-04-20 02:07 | -19.60237 | -47.61937 | 25443 ft | 431 kts | 148° |
| 2026-04-20 02:08 | -19.62693 | -47.60096 | 25821 ft | 433 kts | 149° |
| 2026-04-20 02:08 | -19.65133 | -47.58266 | 26194 ft | 436 kts | 149° |
| 2026-04-20 02:08 | -19.67618 | -47.56402 | 26574 ft | 438 kts | 149° |
| 2026-04-20 02:08 | -19.70122 | -47.54522 | 26937 ft | 441 kts | 149° |
| 2026-04-20 02:09 | -19.72637 | -47.52633 | 27303 ft | 444 kts | 149° |
| 2026-04-20 02:09 | -19.75189 | -47.50773 | 27660 ft | 444 kts | 153° |
| 2026-04-20 02:09 | -19.77885 | -47.49178 | 27999 ft | 444 kts | 157° |
| 2026-04-20 02:09 | -19.80619 | -47.47631 | 28352 ft | 446 kts | 157° |
| 2026-04-20 02:10 | -19.83365 | -47.46069 | 28697 ft | 448 kts | 157° |
| 2026-04-20 02:10 | -19.86086 | -47.44517 | 29034 ft | 451 kts | 157° |
| 2026-04-20 02:10 | -19.88863 | -47.42933 | 29379 ft | 453 kts | 157° |
| 2026-04-20 02:10 | -19.91645 | -47.41345 | 29709 ft | 455 kts | 157° |
| 2026-04-20 02:11 | -19.94444 | -47.39747 | 30038 ft | 458 kts | 157° |
| 2026-04-20 02:11 | -19.97256 | -47.38142 | 30346 ft | 460 kts | 158° |
| 2026-04-20 02:11 | -20.00059 | -47.36541 | 30626 ft | 462 kts | 158° |
| 2026-04-20 02:11 | -20.02909 | -47.34912 | 30930 ft | 464 kts | 158° |
| 2026-04-20 02:12 | -20.05756 | -47.33285 | 31261 ft | 464 kts | 158° |
| 2026-04-20 02:12 | -20.08575 | -47.31672 | 31640 ft | 464 kts | 158° |
| 2026-04-20 02:12 | -20.11427 | -47.30039 | 32043 ft | 463 kts | 158° |
| 2026-04-20 02:12 | -20.14237 | -47.28429 | 32452 ft | 462 kts | 158° |
| 2026-04-20 02:13 | -20.17085 | -47.26798 | 32830 ft | 461 kts | 158° |
| 2026-04-20 02:13 | -20.19916 | -47.25177 | 33182 ft | 460 kts | 158° |
| 2026-04-20 02:13 | -20.22708 | -47.23578 | 33506 ft | 460 kts | 158° |
| 2026-04-20 02:13 | -20.25530 | -47.21960 | 33841 ft | 459 kts | 159° |
| 2026-04-20 02:14 | -20.28356 | -47.20340 | 34133 ft | 458 kts | 159° |
| 2026-04-20 02:14 | -20.31139 | -47.18744 | 34385 ft | 458 kts | 159° |
| 2026-04-20 02:14 | -20.33961 | -47.17124 | 34629 ft | 458 kts | 159° |
| 2026-04-20 02:14 | -20.36743 | -47.15526 | 34865 ft | 458 kts | 159° |
| 2026-04-20 02:15 | -20.39552 | -47.13913 | 35002 ft | 457 kts | 159° |
| 2026-04-20 02:15 | -20.42367 | -47.12295 | 35023 ft | 456 kts | 159° |
| 2026-04-20 02:15 | -20.47868 | -47.09128 | 35024 ft | 450 kts | 159° |
| 2026-04-20 02:16 | -20.53475 | -47.05909 | 35019 ft | 457 kts | 159° |
| 2026-04-20 02:16 | -20.59023 | -47.02712 | 35017 ft | 455 kts | 159° |
| 2026-04-20 02:17 | -20.64609 | -46.99494 | 35021 ft | 455 kts | 159° |
| 2026-04-20 02:17 | -20.70173 | -46.96285 | 35027 ft | 455 kts | 158° |
| 2026-04-20 02:18 | -20.75789 | -46.93191 | 35030 ft | 450 kts | 164° |
| 2026-04-20 02:18 | -20.81667 | -46.91150 | 35028 ft | 440 kts | 174° |
| 2026-04-20 02:19 | -20.87692 | -46.90114 | 35031 ft | 436 kts | 178° |
| 2026-04-20 02:19 | -20.93674 | -46.89173 | 35033 ft | 437 kts | 178° |
| 2026-04-20 02:20 | -20.99699 | -46.88226 | 35031 ft | 437 kts | 178° |
| 2026-04-20 02:20 | -21.05706 | -46.87287 | 35033 ft | 437 kts | 178° |
| 2026-04-20 02:21 | -21.14716 | -46.85877 | 35036 ft | 437 kts | 178° |
| 2026-04-20 02:22 | -21.20754 | -46.84932 | 35035 ft | 436 kts | 178° |
| 2026-04-20 02:22 | -21.26755 | -46.83991 | 35040 ft | 436 kts | 178° |
| 2026-04-20 02:23 | -21.32742 | -46.83051 | 35041 ft | 436 kts | 178° |
| 2026-04-20 02:23 | -21.37758 | -46.82262 | 35037 ft | 436 kts | 177° |
| 2026-04-20 02:24 | -21.44718 | -46.81168 | 35033 ft | 436 kts | 177° |
| 2026-04-20 02:24 | -21.49730 | -46.80379 | 34536 ft | 434 kts | 177° |
| 2026-04-20 02:24 | -21.52733 | -46.79908 | 33733 ft | 439 kts | 177° |
| 2026-04-20 02:25 | -21.55771 | -46.79434 | 32623 ft | 447 kts | 177° |
| 2026-04-20 02:25 | -21.58874 | -46.78951 | 31463 ft | 456 kts | 176° |
| 2026-04-20 02:25 | -21.62050 | -46.78452 | 30561 ft | 460 kts | 176° |
| 2026-04-20 02:25 | -21.65173 | -46.77957 | 30060 ft | 453 kts | 175° |
| 2026-04-20 02:26 | -21.68280 | -46.77464 | 29473 ft | 446 kts | 175° |
| 2026-04-20 02:26 | -21.71301 | -46.76985 | 28911 ft | 440 kts | 175° |
| 2026-04-20 02:26 | -21.74320 | -46.76508 | 28363 ft | 434 kts | 175° |
| 2026-04-20 02:26 | -21.77304 | -46.76036 | 27804 ft | 428 kts | 175° |
| 2026-04-20 02:27 | -21.80214 | -46.75577 | 27267 ft | 424 kts | 175° |
| 2026-04-20 02:27 | -21.83116 | -46.75119 | 26733 ft | 419 kts | 175° |
| 2026-04-20 02:27 | -21.85998 | -46.74664 | 26195 ft | 415 kts | 174° |
| 2026-04-20 02:27 | -21.88856 | -46.74213 | 25652 ft | 412 kts | 174° |
| 2026-04-20 02:28 | -21.91655 | -46.73771 | 25078 ft | 410 kts | 174° |
| 2026-04-20 02:28 | -21.94468 | -46.73326 | 24591 ft | 405 kts | 174° |
| 2026-04-20 02:28 | -21.97262 | -46.72884 | 24062 ft | 402 kts | 174° |
| 2026-04-20 02:28 | -22.00005 | -46.72450 | 23504 ft | 400 kts | 174° |
| 2026-04-20 02:29 | -22.02754 | -46.72014 | 22965 ft | 395 kts | 173° |
| 2026-04-20 02:29 | -22.05435 | -46.71589 | 22448 ft | 391 kts | 173° |
| 2026-04-20 02:29 | -22.08122 | -46.71162 | 21926 ft | 387 kts | 173° |
| 2026-04-20 02:29 | -22.10770 | -46.70742 | 21416 ft | 383 kts | 173° |
| 2026-04-20 02:30 | -22.13379 | -46.70327 | 20908 ft | 379 kts | 173° |
| 2026-04-20 02:30 | -22.15980 | -46.69915 | 20394 ft | 376 kts | 173° |
| 2026-04-20 02:30 | -22.18565 | -46.69504 | 19893 ft | 373 kts | 173° |
| 2026-04-20 02:30 | -22.21099 | -46.69101 | 19372 ft | 370 kts | 173° |
| 2026-04-20 02:31 | -22.23644 | -46.68697 | 18842 ft | 368 kts | 172° |
| 2026-04-20 02:31 | -22.26174 | -46.68294 | 18371 ft | 366 kts | 172° |
| 2026-04-20 02:31 | -22.28666 | -46.67897 | 17839 ft | 363 kts | 172° |
| 2026-04-20 02:31 | -22.31152 | -46.67501 | 17352 ft | 359 kts | 172° |
| 2026-04-20 02:32 | -22.33629 | -46.67106 | 16857 ft | 355 kts | 172° |
| 2026-04-20 02:32 | -22.36064 | -46.66718 | 16364 ft | 352 kts | 172° |
| 2026-04-20 02:32 | -22.38461 | -46.66420 | 15896 ft | 348 kts | 180° |
| 2026-04-20 02:32 | -22.40847 | -46.66818 | 15410 ft | 346 kts | 198° |
| 2026-04-20 02:33 | -22.42949 | -46.67990 | 14938 ft | 345 kts | 216° |
| 2026-04-20 02:33 | -22.44634 | -46.69841 | 14444 ft | 346 kts | 231° |
| 2026-04-20 02:33 | -22.46086 | -46.71914 | 13971 ft | 344 kts | 231° |
| 2026-04-20 02:33 | -22.47540 | -46.73977 | 13458 ft | 342 kts | 231° |
| 2026-04-20 02:34 | -22.48955 | -46.75980 | 13000 ft | 339 kts | 231° |
| 2026-04-20 02:34 | -22.50387 | -46.78003 | 12528 ft | 336 kts | 231° |
| 2026-04-20 02:34 | -22.51801 | -46.80001 | 12062 ft | 333 kts | 231° |
| 2026-04-20 02:34 | -22.53195 | -46.81971 | 11607 ft | 331 kts | 231° |
| 2026-04-20 02:35 | -22.54592 | -46.83945 | 11150 ft | 328 kts | 231° |
| 2026-04-20 02:35 | -22.55976 | -46.85902 | 10694 ft | 326 kts | 231° |
| 2026-04-20 02:35 | -22.57352 | -46.87848 | 10400 ft | 319 kts | 231° |
| 2026-04-20 02:35 | -22.58656 | -46.89700 | 10287 ft | 306 kts | 231° |
| 2026-04-20 02:36 | -22.59926 | -46.91504 | 10139 ft | 294 kts | 231° |
| 2026-04-20 02:36 | -22.61158 | -46.93252 | 9875 ft | 288 kts | 231° |
| 2026-04-20 02:36 | -22.62343 | -46.94934 | 9721 ft | 283 kts | 231° |
| 2026-04-20 02:36 | -22.63551 | -46.96649 | 9374 ft | 287 kts | 231° |
| 2026-04-20 02:37 | -22.64768 | -46.98376 | 9013 ft | 286 kts | 231° |
| 2026-04-20 02:37 | -22.65947 | -47.00053 | 8781 ft | 280 kts | 231° |
| 2026-04-20 02:37 | -22.67136 | -47.01743 | 8542 ft | 282 kts | 231° |
| 2026-04-20 02:37 | -22.68324 | -47.03432 | 8302 ft | 281 kts | 231° |
| 2026-04-20 02:38 | -22.69504 | -47.05110 | 8063 ft | 280 kts | 231° |
| 2026-04-20 02:38 | -22.70684 | -47.06789 | 7753 ft | 278 kts | 231° |
| 2026-04-20 02:38 | -22.71848 | -47.08447 | 7517 ft | 278 kts | 231° |
| 2026-04-20 02:38 | -22.73014 | -47.10108 | 7281 ft | 277 kts | 231° |
| 2026-04-20 02:39 | -22.74178 | -47.11767 | 7042 ft | 276 kts | 231° |
| 2026-04-20 02:39 | -22.75341 | -47.13423 | 6812 ft | 275 kts | 231° |
| 2026-04-20 02:39 | -22.76501 | -47.15076 | 6573 ft | 275 kts | 231° |
| 2026-04-20 02:39 | -22.77658 | -47.16725 | 6330 ft | 274 kts | 231° |
| 2026-04-20 02:40 | -22.78800 | -47.18355 | 6098 ft | 274 kts | 231° |
| 2026-04-20 02:40 | -22.79946 | -47.19991 | 5987 ft | 269 kts | 231° |
| 2026-04-20 02:40 | -22.81056 | -47.21557 | 5973 ft | 254 kts | 227° |
| 2026-04-20 02:40 | -22.82279 | -47.22868 | 5886 ft | 241 kts | 217° |
| 2026-04-20 02:41 | -22.83581 | -47.23938 | 5793 ft | 229 kts | 215° |
| 2026-04-20 02:41 | -22.84818 | -47.24963 | 5687 ft | 217 kts | 216° |
| 2026-04-20 02:41 | -22.85978 | -47.25933 | 5551 ft | 205 kts | 216° |
| 2026-04-20 02:41 | -22.87088 | -47.26864 | 5187 ft | 203 kts | 214° |
| 2026-04-20 02:42 | -22.88370 | -47.27316 | 5058 ft | 196 kts | 171° |
| 2026-04-20 02:42 | -22.89613 | -47.26697 | 4951 ft | 203 kts | 144° |
| 2026-04-20 02:42 | -22.90693 | -47.25724 | 4779 ft | 196 kts | 140° |
| 2026-04-20 02:42 | -22.91691 | -47.24742 | 4510 ft | 189 kts | 140° |
| 2026-04-20 02:43 | -22.92727 | -47.23936 | 4248 ft | 182 kts | 147° |
| 2026-04-20 02:43 | -22.93787 | -47.23239 | 4024 ft | 173 kts | 140° |
| 2026-04-20 02:43 | -22.94558 | -47.22295 | 3834 ft | 162 kts | 128° |
| 2026-04-20 02:43 | -22.95212 | -47.21338 | 3636 ft | 155 kts | 128° |
| 2026-04-20 02:44 | -22.95806 | -47.20461 | 3463 ft | 135 kts | 128° |
| 2026-04-20 02:44 | -22.96345 | -47.19673 | 3300 ft | 127 kts | 128° |
| 2026-04-20 02:44 | -22.96877 | -47.18907 | 3137 ft | 129 kts | 128° |
| 2026-04-20 02:44 | -22.97417 | -47.18124 | 2954 ft | 130 kts | 128° |
| 2026-04-20 02:45 | -22.97981 | -47.17333 | 2784 ft | 133 kts | 128° |
| 2026-04-20 02:45 | -22.98541 | -47.16546 | 2608 ft | 131 kts | 127° |
| 2026-04-20 02:45 | -22.99108 | -47.15751 | 2399 ft | 135 kts | 126° |
| 2026-04-20 02:45 | -22.99660 | -47.14950 | 2229 ft | 130 kts | 126° |
| 2026-04-20 02:46 | -23.00207 | -47.14195 | 2151 ft | 117 kts | 127° |
| 2026-04-20 02:46 | -23.00589 | -47.13662 | 2158 ft | 72 kts | 127° |
| 2026-04-20 02:46 | -23.00809 | -47.13355 | 2158 ft | 28 kts | 127° |
| 2026-04-20 02:46 | -23.00923 | -47.13196 | 2164 ft | 26 kts | 128° |
| 2026-04-20 02:47 | -23.01037 | -47.13036 | 2167 ft | 28 kts | 128° |
| 2026-04-20 02:47 | -23.01170 | -47.12889 | 2165 ft | 23 kts | 145° |
| 2026-04-20 02:47 | -23.01319 | -47.12811 | 2165 ft | 22 kts | 160° |
| 2026-04-20 02:47 | -23.01397 | -47.12842 | 2169 ft | 8 kts | 265° |
| 2026-04-20 02:48 | -23.01361 | -47.12899 | 2168 ft | 15 kts | 307° |
| 2026-04-20 02:48 | -23.01272 | -47.13024 | 2168 ft | 26 kts | 308° |
| 2026-04-20 02:48 | -23.01172 | -47.13164 | 2159 ft | 22 kts | 308° |
| 2026-04-20 02:48 | -23.01055 | -47.13327 | 2163 ft | 27 kts | 307° |
| 2026-04-20 02:49 | -23.00963 | -47.13456 | 2163 ft | 25 kts | 308° |
| 2026-04-20 02:49 | -23.00863 | -47.13596 | 2163 ft | 21 kts | 307° |
| 2026-04-20 02:49 | -23.00768 | -47.13729 | 2155 ft | 24 kts | 308° |
| 2026-04-20 02:49 | -23.00666 | -47.13871 | 2155 ft | 9 kts | 307° |
| 2026-04-20 02:50 | -23.00605 | -47.13956 | 2152 ft | 19 kts | 308° |
| 2026-04-20 02:50 | -23.00526 | -47.14067 | 2153 ft | 19 kts | 308° |
| 2026-04-20 02:50 | -23.00431 | -47.14200 | 2153 ft | 17 kts | 309° |
| 2026-04-20 02:50 | -23.00345 | -47.14320 | 2153 ft | 23 kts | 307° |
| 2026-04-20 02:51 | -23.00240 | -47.14469 | 2151 ft | 23 kts | 308° |
| 2026-04-20 02:51 | -23.00133 | -47.14616 | 2150 ft | 27 kts | 308° |
| 2026-04-20 02:51 | -23.00036 | -47.14750 | 2149 ft | 20 kts | 307° |
| 2026-04-20 02:51 | -23.00039 | -47.14885 | 2148 ft | 21 kts | 229° |
| 2026-04-20 02:52 | -23.00151 | -47.14979 | 2145 ft | 19 kts | 217° |
| 2026-04-20 02:52 | -23.00266 | -47.15076 | 2148 ft | 23 kts | 218° |
| 2026-04-20 02:52 | -23.00374 | -47.15161 | 2148 ft | 12 kts | 197° |
| 2026-04-20 02:52 | -23.00437 | -47.15112 | 2149 ft | 9 kts | 127° |
| 2026-04-20 02:53 | -23.00454 | -47.15063 | 2149 ft | 5 kts | 49° |
| 2026-04-20 02:53 | -23.00420 | -47.15035 | 2146 ft | 4 kts | 37° |